Sargents, CO (81248)

6:46 AM MDT on August 05, 2015 (GMT -0600)
MesoWest | | Change Station
CLOSE
Current Station
Personal Weather Station
Location: Sargents, CO
Elevation: 10760 ft
Nearby Weather Stations

Elev 10760 ft 38.49 °N, 106.34 °W | Updated 1 hour ago

Clear
Clear
41.0 °F
Feels Like 41.0 °F
N
0.0
Wind Variable Wind from North
Gusts 0.0 mph

Today
High -- | Low -- °F
--% Chance of Precip.
Yesterday
High -- | Low -- °F
Precip. -- in
6:10 AM 8:11 PM
Waning Gibbous, 67% visible
Pressure 30.42 in
Visibility 10.0 miles
Clouds Clear
Dew Point Not available.
Humidity Not available.
Rainfall in
Snow Depth Not available.
UV 0 out of 12
Pollen 8.00 out of 12
Air Quality Not available.
Flu Activity Not available.
METAR KAEJ 051235Z AUTO 33005KT 10SM CLR 08/04 A3042 RMK AO2 T00800036

More Conditions Fewer Conditions

Pressure 30.42 in
Visibility 10.0 miles
Clouds Clear
Dew Point Not available.
Humidity Not available.
Rainfall in
Snow Depth Not available.
UV 0 out of 12
Pollen 8.00 out of 12
Air Quality Not available.
Flu Activity Not available.
METAR KAEJ 051235Z AUTO 33005KT 10SM CLR 08/04 A3042 RMK AO2 T00800036

More Conditions Fewer Conditions

10-Day Weather Forecast

×

Almanac

Astronomy

Aug. 05, 2015 Rise Set
Actual Time
Civil Twilight
Nautical Twilight
Astronomical Twilight
Moon
Length of Visible Light
Length of Day
Tomorrow will be .
, % of the Moon is Illuminated

Today's Extremes

State Highs State Lows

Community

WunderPhotos

Upload Photos

1,844,175 photos uploaded!

WunderBlogs® & News

Nearby

Air Quality

  Air Quality AQ Index Pollutant
Not available.

Snow Depth

Station Depth Elevation

Earthquake Activity

City Distance Mag. Time & Date
Minimum magnitude displayed is 2.5.

Coastal Water Temperatures

Place Temperature

Stations

Nearby Weather Stations

Station Location Temp. Windchill Dew Point Humidity Wind Precip. Elev Updated Type